sensor_id;sensor_type;location;lat;lon;timestamp;pressure;altitude;pressure_sealevel;temperature;humidity
15914;BME280;8055;51.930;8.840;2023-06-10T00:01:24;75158.44;;;-145.72;80.39
15914;BME280;8055;51.930;8.840;2023-06-10T00:03:50;75154.31;;;-145.72;79.46
15914;BME280;8055;51.930;8.840;2023-06-10T00:06:17;75156.38;;;-145.72;80.57
15914;BME280;8055;51.930;8.840;2023-06-10T00:08:45;75150.16;;;-145.72;79.47
15914;BME280;8055;51.930;8.840;2023-06-10T00:11:12;75150.16;;;-145.72;79.90
15914;BME280;8055;51.930;8.840;2023-06-10T00:13:38;75156.38;;;-145.72;80.45
15914;BME280;8055;51.930;8.840;2023-06-10T00:16:03;75154.31;;;-145.72;81.04
15914;BME280;8055;51.930;8.840;2023-06-10T00:18:29;75150.16;;;-145.72;80.25
15914;BME280;8055;51.930;8.840;2023-06-10T00:20:57;75158.44;;;-145.72;80.31
15914;BME280;8055;51.930;8.840;2023-06-10T00:23:22;75154.31;;;-145.72;79.44
15914;BME280;8055;51.930;8.840;2023-06-10T00:25:50;75158.44;;;-145.72;79.84
15914;BME280;8055;51.930;8.840;2023-06-10T00:28:15;75154.31;;;-145.72;78.88
15914;BME280;8055;51.930;8.840;2023-06-10T00:30:41;75162.59;;;-145.72;77.29
15914;BME280;8055;51.930;8.840;2023-06-10T00:33:06;75164.66;;;-145.72;78.76
15914;BME280;8055;51.930;8.840;2023-06-10T00:35:31;75162.59;;;-145.72;77.30
15914;BME280;8055;51.930;8.840;2023-06-10T00:37:57;75170.88;;;-145.72;77.61
15914;BME280;8055;51.930;8.840;2023-06-10T00:40:22;75164.66;;;-145.72;77.23
15914;BME280;8055;51.930;8.840;2023-06-10T00:42:47;75164.66;;;-145.72;76.76
15914;BME280;8055;51.930;8.840;2023-06-10T00:45:13;75181.22;;;-145.72;76.72
15914;BME280;8055;51.930;8.840;2023-06-10T00:47:38;75170.88;;;-145.72;76.96
15914;BME280;8055;51.930;8.840;2023-06-10T00:50:05;75187.41;;;-145.72;74.77
15914;BME280;8055;51.930;8.840;2023-06-10T00:52:31;75191.56;;;-145.72;73.73
15914;BME280;8055;51.930;8.840;2023-06-10T00:54:57;75191.56;;;-145.72;75.77
15914;BME280;8055;51.930;8.840;2023-06-10T00:57:25;75193.63;;;-145.72;76.78
15914;BME280;8055;51.930;8.840;2023-06-10T00:59:50;75197.75;;;-145.72;76.01
15914;BME280;8055;51.930;8.840;2023-06-10T01:02:16;75208.09;;;-145.72;75.99
15914;BME280;8055;51.930;8.840;2023-06-10T01:04:41;75216.38;;;-145.72;76.63
15914;BME280;8055;51.930;8.840;2023-06-10T01:07:15;75218.44;;;-145.72;76.76
15914;BME280;8055;51.930;8.840;2023-06-10T01:10:01;75210.16;;;-145.72;76.08
15914;BME280;8055;51.930;8.840;2023-06-10T01:12:41;75212.25;;;-145.72;76.42
15914;BME280;8055;51.930;8.840;2023-06-10T01:15:16;75220.50;;;-145.72;75.59
15914;BME280;8055;51.930;8.840;2023-06-10T01:18:02;75232.94;;;-145.72;76.26
15914;BME280;8055;51.930;8.840;2023-06-10T01:20:30;75241.19;;;-145.72;76.66
15914;BME280;8055;51.930;8.840;2023-06-10T01:22:58;75247.41;;;-145.72;77.51
15914;BME280;8055;51.930;8.840;2023-06-10T01:25:25;75251.56;;;-145.72;77.40
15914;BME280;8055;51.930;8.840;2023-06-10T01:28:03;75245.34;;;-145.72;76.36
15914;BME280;8055;51.930;8.840;2023-06-10T01:30:35;75261.91;;;-145.72;77.35
15914;BME280;8055;51.930;8.840;2023-06-10T01:33:07;75261.91;;;-145.72;77.62
15914;BME280;8055;51.930;8.840;2023-06-10T01:35:33;75257.75;;;-145.72;77.31
15914;BME280;8055;51.930;8.840;2023-06-10T01:38:02;75266.03;;;-145.72;76.69
15914;BME280;8055;51.930;8.840;2023-06-10T01:40:29;75280.50;;;-145.72;78.33
15914;BME280;8055;51.930;8.840;2023-06-10T01:42:55;75282.59;;;-145.72;77.00
15914;BME280;8055;51.930;8.840;2023-06-10T01:45:20;75272.25;;;-145.72;77.76
15914;BME280;8055;51.930;8.840;2023-06-10T01:47:46;75278.44;;;-145.72;76.85
15914;BME280;8055;51.930;8.840;2023-06-10T01:50:11;75286.72;;;-145.72;78.37
15914;BME280;8055;51.930;8.840;2023-06-10T01:52:37;75286.72;;;-145.72;78.41
15914;BME280;8055;51.930;8.840;2023-06-10T01:55:03;75286.72;;;-145.72;77.51
15914;BME280;8055;51.930;8.840;2023-06-10T01:57:29;75297.06;;;-145.72;78.83
15914;BME280;8055;51.930;8.840;2023-06-10T01:59:55;75303.28;;;-145.72;77.67
15914;BME280;8055;51.930;8.840;2023-06-10T02:02:20;75313.63;;;-145.72;78.12
15914;BME280;8055;51.930;8.840;2023-06-10T02:04:47;75315.69;;;-145.72;77.23
15914;BME280;8055;51.930;8.840;2023-06-10T02:07:12;75321.91;;;-145.72;75.55
15914;BME280;8055;51.930;8.840;2023-06-10T02:09:37;75328.09;;;-145.72;78.43
15914;BME280;8055;51.930;8.840;2023-06-10T02:12:03;75332.25;;;-145.72;76.67
15914;BME280;8055;51.930;8.840;2023-06-10T02:14:29;75334.31;;;-145.72;79.00
15914;BME280;8055;51.930;8.840;2023-06-10T02:16:54;75334.31;;;-145.72;78.74
15914;BME280;8055;51.930;8.840;2023-06-10T02:19:22;75336.38;;;-145.72;78.38
15914;BME280;8055;51.930;8.840;2023-06-10T02:21:48;75332.25;;;-145.72;79.15
15914;BME280;8055;51.930;8.840;2023-06-10T02:24:14;75328.09;;;-145.72;78.22
15914;BME280;8055;51.930;8.840;2023-06-10T02:26:40;75338.44;;;-145.72;79.05
15914;BME280;8055;51.930;8.840;2023-06-10T02:29:06;75348.78;;;-145.72;80.44
15914;BME280;8055;51.930;8.840;2023-06-10T02:31:31;75350.88;;;-145.72;84.50
15914;BME280;8055;51.930;8.840;2023-06-10T02:33:56;75365.34;;;-145.72;84.33
15914;BME280;8055;51.930;8.840;2023-06-10T02:36:22;75383.97;;;-145.72;86.63
15914;BME280;8055;51.930;8.840;2023-06-10T02:38:49;75400.50;;;-145.72;85.35
15914;BME280;8055;51.930;8.840;2023-06-10T02:41:15;75402.59;;;-145.72;84.62
15914;BME280;8055;51.930;8.840;2023-06-10T02:46:10;75408.78;;;-145.72;84.86
15914;BME280;8055;51.930;8.840;2023-06-10T02:48:43;75406.72;;;-145.72;87.26
15914;BME280;8055;51.930;8.840;2023-06-10T02:51:11;75412.94;;;-145.72;86.52
15914;BME280;8055;51.930;8.840;2023-06-10T02:53:36;75421.22;;;-145.72;88.80
15914;BME280;8055;51.930;8.840;2023-06-10T02:56:02;75425.34;;;-145.72;85.51
15914;BME280;8055;51.930;8.840;2023-06-10T02:58:27;75412.94;;;-145.72;87.16
15914;BME280;8055;51.930;8.840;2023-06-10T03:00:53;75419.13;;;-145.72;84.75
15914;BME280;8055;51.930;8.840;2023-06-10T03:03:18;75419.13;;;-145.72;84.91
15914;BME280;8055;51.930;8.840;2023-06-10T03:05:43;75425.34;;;-145.72;84.65
15914;BME280;8055;51.930;8.840;2023-06-10T03:08:09;75423.28;;;-145.72;83.89
15914;BME280;8055;51.930;8.840;2023-06-10T03:10:34;75410.88;;;-145.72;83.22
15914;BME280;8055;51.930;8.840;2023-06-10T03:13:00;75415.00;;;-145.72;81.57
15914;BME280;8055;51.930;8.840;2023-06-10T03:15:25;75423.28;;;-145.72;83.64
15914;BME280;8055;51.930;8.840;2023-06-10T03:17:50;75427.41;;;-145.72;83.30
15914;BME280;8055;51.930;8.840;2023-06-10T03:20:16;75423.28;;;-145.72;83.00
15914;BME280;8055;51.930;8.840;2023-06-10T03:22:42;75429.47;;;-145.72;82.14
15914;BME280;8055;51.930;8.840;2023-06-10T03:25:08;75423.28;;;-145.72;81.45
15914;BME280;8055;51.930;8.840;2023-06-10T03:27:39;75431.56;;;-145.72;86.79
15914;BME280;8055;51.930;8.840;2023-06-10T03:30:05;75431.56;;;-145.72;84.36
15914;BME280;8055;51.930;8.840;2023-06-10T03:32:31;75431.56;;;-145.72;83.80
15914;BME280;8055;51.930;8.840;2023-06-10T03:34:56;75427.41;;;-145.72;83.32
15914;BME280;8055;51.930;8.840;2023-06-10T03:37:22;75431.56;;;-145.72;84.51
15914;BME280;8055;51.930;8.840;2023-06-10T03:39:47;75435.69;;;-145.72;87.67
15914;BME280;8055;51.930;8.840;2023-06-10T03:42:12;75435.69;;;-145.72;85.20
15914;BME280;8055;51.930;8.840;2023-06-10T03:44:38;75443.97;;;-145.72;84.82
15914;BME280;8055;51.930;8.840;2023-06-10T03:47:03;75446.03;;;-145.72;87.85
15914;BME280;8055;51.930;8.840;2023-06-10T03:49:29;75446.03;;;-145.72;86.64
15914;BME280;8055;51.930;8.840;2023-06-10T03:51:54;75448.09;;;-145.72;86.42
15914;BME280;8055;51.930;8.840;2023-06-10T03:54:20;75460.53;;;-145.72;87.37
15914;BME280;8055;51.930;8.840;2023-06-10T03:56:46;75460.53;;;-145.72;87.56
15914;BME280;8055;51.930;8.840;2023-06-10T03:59:13;75468.78;;;-145.72;87.20
15914;BME280;8055;51.930;8.840;2023-06-10T04:01:39;75464.66;;;-145.72;87.38
15914;BME280;8055;51.930;8.840;2023-06-10T04:04:06;75470.88;;;-145.72;85.67
15914;BME280;8055;51.930;8.840;2023-06-10T04:06:31;75458.44;;;-145.72;86.87
15914;BME280;8055;51.930;8.840;2023-06-10T04:08:57;75460.53;;;-145.72;83.71
15914;BME280;8055;51.930;8.840;2023-06-10T04:11:25;75452.25;;;-145.72;86.78
15914;BME280;8055;51.930;8.840;2023-06-10T04:13:51;75452.25;;;-145.72;85.39
15914;BME280;8055;51.930;8.840;2023-06-10T04:16:16;75441.91;;;-145.72;88.82
15914;BME280;8055;51.930;8.840;2023-06-10T04:18:41;75448.09;;;-145.72;96.29
15914;BME280;8055;51.930;8.840;2023-06-10T04:21:07;75458.44;;;-145.72;96.22
15914;BME280;8055;51.930;8.840;2023-06-10T04:23:35;75441.91;;;-145.72;94.99
15914;BME280;8055;51.930;8.840;2023-06-10T04:26:00;75439.81;;;-145.72;90.62
15914;BME280;8055;51.930;8.840;2023-06-10T04:28:25;75431.56;;;-145.72;95.16
15914;BME280;8055;51.930;8.840;2023-06-10T04:30:52;75421.22;;;-145.72;89.92
15914;BME280;8055;51.930;8.840;2023-06-10T04:33:17;75419.13;;;-145.72;93.40
15914;BME280;8055;51.930;8.840;2023-06-10T04:35:42;75412.94;;;-145.72;93.70
15914;BME280;8055;51.930;8.840;2023-06-10T04:38:08;75410.88;;;-145.72;94.16
15914;BME280;8055;51.930;8.840;2023-06-10T04:40:33;75410.88;;;-145.72;94.61
15914;BME280;8055;51.930;8.840;2023-06-10T04:42:58;75400.50;;;-145.72;94.74
15914;BME280;8055;51.930;8.840;2023-06-10T04:45:24;75381.91;;;-145.72;93.61
15914;BME280;8055;51.930;8.840;2023-06-10T04:47:49;75379.81;;;-145.72;91.09
15914;BME280;8055;51.930;8.840;2023-06-10T04:50:14;75377.75;;;-145.72;91.40
15914;BME280;8055;51.930;8.840;2023-06-10T04:52:41;75369.47;;;-145.72;87.98
15914;BME280;8055;51.930;8.840;2023-06-10T04:55:09;75367.41;;;-145.72;86.75
15914;BME280;8055;51.930;8.840;2023-06-10T04:57:35;75350.88;;;-145.72;83.73
15914;BME280;8055;51.930;8.840;2023-06-10T05:00:00;75340.50;;;-145.72;84.43
15914;BME280;8055;51.930;8.840;2023-06-10T05:02:25;75336.38;;;-145.72;83.30
15914;BME280;8055;51.930;8.840;2023-06-10T05:04:51;75319.81;;;-145.72;82.43
15914;BME280;8055;51.930;8.840;2023-06-10T05:07:16;75323.97;;;-145.72;78.71
15914;BME280;8055;51.930;8.840;2023-06-10T05:09:42;75330.16;;;-145.72;80.54
15914;BME280;8055;51.930;8.840;2023-06-10T05:12:08;75319.81;;;-145.72;82.88
15914;BME280;8055;51.930;8.840;2023-06-10T05:14:34;75313.63;;;-145.72;81.02
15914;BME280;8055;51.930;8.840;2023-06-10T05:16:59;75319.81;;;-145.72;79.95
15914;BME280;8055;51.930;8.840;2023-06-10T05:19:24;75311.56;;;-145.72;81.84
15914;BME280;8055;51.930;8.840;2023-06-10T05:21:50;75303.28;;;-145.72;82.88
15914;BME280;8055;51.930;8.840;2023-06-10T05:24:15;75292.94;;;-145.72;81.60
15914;BME280;8055;51.930;8.840;2023-06-10T05:26:41;75286.72;;;-145.72;80.45
15914;BME280;8055;51.930;8.840;2023-06-10T05:29:07;75276.38;;;-145.72;80.99
15914;BME280;8055;51.930;8.840;2023-06-10T05:31:34;75259.81;;;-145.72;79.78
15914;BME280;8055;51.930;8.840;2023-06-10T05:33:59;75261.91;;;-145.72;78.96
15914;BME280;8055;51.930;8.840;2023-06-10T05:36:25;75249.47;;;-145.72;79.38
15914;BME280;8055;51.930;8.840;2023-06-10T05:38:51;75243.28;;;-145.72;78.79
15914;BME280;8055;51.930;8.840;2023-06-10T05:41:16;75237.06;;;-145.72;78.60
15914;BME280;8055;51.930;8.840;2023-06-10T05:43:42;75220.50;;;-145.72;79.40
15914;BME280;8055;51.930;8.840;2023-06-10T05:46:07;75216.38;;;-145.72;79.56
15914;BME280;8055;51.930;8.840;2023-06-10T05:48:33;75197.75;;;-145.72;80.45
15914;BME280;8055;51.930;8.840;2023-06-10T05:50:58;75187.41;;;-145.72;78.70
15914;BME280;8055;51.930;8.840;2023-06-10T05:53:24;75168.78;;;-145.72;77.98
15914;BME280;8055;51.930;8.840;2023-06-10T05:55:49;75154.31;;;-145.72;77.42
15914;BME280;8055;51.930;8.840;2023-06-10T05:58:15;75139.81;;;-145.72;76.79
15914;BME280;8055;51.930;8.840;2023-06-10T06:00:47;75131.56;;;-145.72;74.61
15914;BME280;8055;51.930;8.840;2023-06-10T06:03:13;75129.47;;;-145.72;72.75
15914;BME280;8055;51.930;8.840;2023-06-10T06:05:38;75121.22;;;-145.72;72.05
15914;BME280;8055;51.930;8.840;2023-06-10T06:08:09;75102.59;;;-145.72;71.63
15914;BME280;8055;51.930;8.840;2023-06-10T06:10:35;75100.53;;;-145.72;71.16
15914;BME280;8055;51.930;8.840;2023-06-10T06:13:01;75079.81;;;-145.72;73.34
15914;BME280;8055;51.930;8.840;2023-06-10T06:15:27;75075.69;;;-145.72;71.37
15914;BME280;8055;51.930;8.840;2023-06-10T06:17:52;75077.75;;;-145.72;67.33
15914;BME280;8055;51.930;8.840;2023-06-10T06:20:21;75065.34;;;-145.72;69.41
15914;BME280;8055;51.930;8.840;2023-06-10T06:22:47;75067.41;;;-145.72;69.13
15914;BME280;8055;51.930;8.840;2023-06-10T06:25:12;75044.66;;;-145.72;70.45
15914;BME280;8055;51.930;8.840;2023-06-10T06:27:38;75040.53;;;-145.72;71.24
15914;BME280;8055;51.930;8.840;2023-06-10T06:30:03;75032.25;;;-145.72;69.42
15914;BME280;8055;51.930;8.840;2023-06-10T06:32:29;75032.25;;;-145.72;68.95
15914;BME280;8055;51.930;8.840;2023-06-10T06:34:55;75023.97;;;-145.72;68.82
15914;BME280;8055;51.930;8.840;2023-06-10T06:37:24;75017.75;;;-145.72;66.83
15914;BME280;8055;51.930;8.840;2023-06-10T06:39:53;75028.09;;;-145.72;66.08
15914;BME280;8055;51.930;8.840;2023-06-10T06:42:20;75034.31;;;-145.72;63.98
15914;BME280;8055;51.930;8.840;2023-06-10T06:44:47;75019.84;;;-145.72;66.22
15914;BME280;8055;51.930;8.840;2023-06-10T06:47:13;74999.16;;;-145.72;67.10
15914;BME280;8055;51.930;8.840;2023-06-10T06:49:39;74984.66;;;-145.72;66.01
15914;BME280;8055;51.930;8.840;2023-06-10T06:52:04;74976.38;;;-145.72;65.54
15914;BME280;8055;51.930;8.840;2023-06-10T06:54:30;74966.03;;;-145.72;64.73
15914;BME280;8055;51.930;8.840;2023-06-10T06:56:56;74963.97;;;-145.72;62.71
15914;BME280;8055;51.930;8.840;2023-06-10T06:59:22;74947.44;;;-145.72;65.69
15914;BME280;8055;51.930;8.840;2023-06-10T07:01:50;74924.66;;;-145.72;65.36
15914;BME280;8055;51.930;8.840;2023-06-10T07:04:15;74926.72;;;-145.72;63.27
15914;BME280;8055;51.930;8.840;2023-06-10T07:06:41;74910.19;;;-145.72;65.32
15914;BME280;8055;51.930;8.840;2023-06-10T07:09:09;74899.84;;;-145.72;64.05
15914;BME280;8055;51.930;8.840;2023-06-10T07:11:34;74897.78;;;-145.72;62.10
15914;BME280;8055;51.930;8.840;2023-06-10T07:14:00;74877.09;;;-145.72;64.02
15914;BME280;8055;51.930;8.840;2023-06-10T07:16:26;74862.59;;;-145.72;65.07
15914;BME280;8055;51.930;8.840;2023-06-10T07:18:52;74854.31;;;-145.72;59.53
15914;BME280;8055;51.930;8.840;2023-06-10T07:21:17;74852.25;;;-145.72;60.31
15914;BME280;8055;51.930;8.840;2023-06-10T07:23:43;74839.84;;;-145.72;60.50
15914;BME280;8055;51.930;8.840;2023-06-10T07:26:09;74829.50;;;-145.72;59.64
15914;BME280;8055;51.930;8.840;2023-06-10T07:28:37;74815.03;;;-145.72;60.28
15914;BME280;8055;51.930;8.840;2023-06-10T07:31:03;74806.75;;;-145.72;57.33
15914;BME280;8055;51.930;8.840;2023-06-10T07:33:28;74800.53;;;-145.72;58.32
15914;BME280;8055;51.930;8.840;2023-06-10T07:35:54;74777.78;;;-145.72;58.89
15914;BME280;8055;51.930;8.840;2023-06-10T07:38:19;74763.31;;;-145.72;56.94
15914;BME280;8055;51.930;8.840;2023-06-10T07:40:45;74752.97;;;-145.72;57.78
15914;BME280;8055;51.930;8.840;2023-06-10T07:43:10;74748.81;;;-145.72;56.96
15914;BME280;8055;51.930;8.840;2023-06-10T07:45:35;74728.13;;;-145.72;57.81
15914;BME280;8055;51.930;8.840;2023-06-10T07:48:01;74715.72;;;-145.72;54.03
15914;BME280;8055;51.930;8.840;2023-06-10T07:50:26;74705.38;;;-145.72;54.06
15914;BME280;8055;51.930;8.840;2023-06-10T07:52:51;74703.31;;;-145.72;53.79
15914;BME280;8055;51.930;8.840;2023-06-10T07:55:17;74692.97;;;-145.72;53.54
15914;BME280;8055;51.930;8.840;2023-06-10T07:57:42;74672.28;;;-145.72;53.65
15914;BME280;8055;51.930;8.840;2023-06-10T08:00:08;74655.72;;;-145.72;52.59
15914;BME280;8055;51.930;8.840;2023-06-10T08:02:33;74653.66;;;-145.72;51.62
15914;BME280;8055;51.930;8.840;2023-06-10T08:04:59;74649.53;;;-145.72;50.33
15914;BME280;8055;51.930;8.840;2023-06-10T08:07:24;74635.03;;;-145.72;52.93
15914;BME280;8055;51.930;8.840;2023-06-10T08:09:50;74606.09;;;-145.72;55.07
15914;BME280;8055;51.930;8.840;2023-06-10T08:12:16;74589.53;;;-145.72;53.06
15914;BME280;8055;51.930;8.840;2023-06-10T08:14:41;74604.00;;;-145.72;49.99
15914;BME280;8055;51.930;8.840;2023-06-10T08:17:06;74579.19;;;-145.72;50.94
15914;BME280;8055;51.930;8.840;2023-06-10T08:19:32;74583.34;;;-145.72;46.47
15914;BME280;8055;51.930;8.840;2023-06-10T08:21:57;74562.66;;;-145.72;46.68
15914;BME280;8055;51.930;8.840;2023-06-10T08:24:23;74552.31;;;-145.72;45.07
15914;BME280;8055;51.930;8.840;2023-06-10T08:26:48;74535.75;;;-145.72;44.84
15914;BME280;8055;51.930;8.840;2023-06-10T08:29:14;74531.63;;;-145.72;44.78
15914;BME280;8055;51.930;8.840;2023-06-10T08:31:43;74527.47;;;-145.72;43.61
15914;BME280;8055;51.930;8.840;2023-06-10T08:34:09;74529.53;;;-145.72;41.49
15914;BME280;8055;51.930;8.840;2023-06-10T08:36:34;74531.63;;;-145.72;42.83
15914;BME280;8055;51.930;8.840;2023-06-10T08:39:01;74508.88;;;-145.72;42.18
15914;BME280;8055;51.930;8.840;2023-06-10T08:41:28;74484.03;;;-145.72;44.21
15914;BME280;8055;51.930;8.840;2023-06-10T08:44:08;74463.34;;;-145.72;41.92
15914;BME280;8055;51.930;8.840;2023-06-10T08:46:34;74444.72;;;-145.72;43.54
15914;BME280;8055;51.930;8.840;2023-06-10T08:49:03;74428.19;;;-145.72;43.85
15914;BME280;8055;51.930;8.840;2023-06-10T08:51:31;74415.78;;;-145.72;43.31
15914;BME280;8055;51.930;8.840;2023-06-10T08:54:04;74403.38;;;-145.72;41.56
15914;BME280;8055;51.930;8.840;2023-06-10T08:56:36;74415.78;;;-145.72;40.61
15914;BME280;8055;51.930;8.840;2023-06-10T08:59:05;74403.38;;;-145.72;41.45
15914;BME280;8055;51.930;8.840;2023-06-10T09:01:30;74397.16;;;-145.72;41.19
15914;BME280;8055;51.930;8.840;2023-06-10T09:03:57;74370.28;;;-145.72;42.78
15914;BME280;8055;51.930;8.840;2023-06-10T09:06:25;74364.06;;;-145.72;39.68
15914;BME280;8055;51.930;8.840;2023-06-10T09:08:50;74349.59;;;-145.72;42.31
15914;BME280;8055;51.930;8.840;2023-06-10T09:11:16;74322.69;;;-145.72;43.73
15914;BME280;8055;51.930;8.840;2023-06-10T09:13:41;74306.16;;;-145.72;42.97
15914;BME280;8055;51.930;8.840;2023-06-10T09:16:07;74316.50;;;-145.72;41.45
15914;BME280;8055;51.930;8.840;2023-06-10T09:18:32;74277.19;;;-145.72;42.74
15914;BME280;8055;51.930;8.840;2023-06-10T09:21:00;74279.25;;;-145.72;41.46
15914;BME280;8055;51.930;8.840;2023-06-10T09:23:25;74268.91;;;-145.72;41.94
15914;BME280;8055;51.930;8.840;2023-06-10T09:25:57;74270.97;;;-145.72;40.72
15914;BME280;8055;51.930;8.840;2023-06-10T09:28:23;74273.06;;;-145.72;38.89
15914;BME280;8055;51.930;8.840;2023-06-10T09:30:49;74260.63;;;-145.72;38.72
15914;BME280;8055;51.930;8.840;2023-06-10T09:33:15;74231.69;;;-145.72;40.60
15914;BME280;8055;51.930;8.840;2023-06-10T09:35:49;74264.78;;;-145.72;39.01
15914;BME280;8055;51.930;8.840;2023-06-10T09:38:21;74254.44;;;-145.72;38.96
15914;BME280;8055;51.930;8.840;2023-06-10T09:40:51;74264.78;;;-145.72;37.10
15914;BME280;8055;51.930;8.840;2023-06-10T09:43:17;74256.50;;;-145.72;36.69
15914;BME280;8055;51.930;8.840;2023-06-10T09:45:43;74256.50;;;-145.72;38.02
15914;BME280;8055;51.930;8.840;2023-06-10T09:48:08;74229.63;;;-145.72;38.69
15914;BME280;8055;51.930;8.840;2023-06-10T09:50:34;74248.22;;;-145.72;34.85
15914;BME280;8055;51.930;8.840;2023-06-10T09:53:00;74244.09;;;-145.72;35.35
15914;BME280;8055;51.930;8.840;2023-06-10T09:55:28;74233.75;;;-145.72;35.68
15914;BME280;8055;51.930;8.840;2023-06-10T09:57:54;74200.66;;;-145.72;36.54
15914;BME280;8055;51.930;8.840;2023-06-10T10:00:21;74206.84;;;-145.72;34.81
15914;BME280;8055;51.930;8.840;2023-06-10T10:02:48;74217.19;;;-145.72;34.97
15914;BME280;8055;51.930;8.840;2023-06-10T10:05:15;74200.66;;;-145.72;34.28
15914;BME280;8055;51.930;8.840;2023-06-10T10:07:42;74235.81;;;-145.72;34.62
15914;BME280;8055;51.930;8.840;2023-06-10T10:10:08;74213.06;;;-145.72;35.44
15914;BME280;8055;51.930;8.840;2023-06-10T10:12:35;74211.00;;;-145.72;33.97
15914;BME280;8055;51.930;8.840;2023-06-10T10:15:01;74186.19;;;-145.72;35.48
15914;BME280;8055;51.930;8.840;2023-06-10T10:17:27;74196.50;;;-145.72;34.93
15914;BME280;8055;51.930;8.840;2023-06-10T10:19:58;74194.44;;;-145.72;35.01
15914;BME280;8055;51.930;8.840;2023-06-10T10:22:37;74169.63;;;-145.72;35.73
15914;BME280;8055;51.930;8.840;2023-06-10T10:25:07;74144.81;;;-145.72;36.33
15914;BME280;8055;51.930;8.840;2023-06-10T10:27:44;74124.13;;;-145.72;36.48
15914;BME280;8055;51.930;8.840;2023-06-10T10:30:12;74122.06;;;-145.72;35.29
15914;BME280;8055;51.930;8.840;2023-06-10T10:32:57;74105.50;;;-145.72;37.14
15914;BME280;8055;51.930;8.840;2023-06-10T10:35:25;74097.22;;;-145.72;35.74
15914;BME280;8055;51.930;8.840;2023-06-10T10:37:52;74053.81;;;-145.72;37.62
15914;BME280;8055;51.930;8.840;2023-06-10T10:40:20;74074.47;;;-145.72;34.57
15914;BME280;8055;51.930;8.840;2023-06-10T10:42:47;74082.75;;;-145.72;35.78
15914;BME280;8055;51.930;8.840;2023-06-10T10:45:13;74045.53;;;-145.72;36.17
15914;BME280;8055;51.930;8.840;2023-06-10T10:47:39;74037.25;;;-145.72;35.31
15914;BME280;8055;51.930;8.840;2023-06-10T10:50:28;74033.13;;;-145.72;35.46
15914;BME280;8055;51.930;8.840;2023-06-10T10:52:59;74028.97;;;-145.72;36.35
15914;BME280;8055;51.930;8.840;2023-06-10T10:55:25;74031.03;;;-145.72;35.82
15914;BME280;8055;51.930;8.840;2023-06-10T10:58:06;73995.88;;;-145.72;35.80
15914;BME280;8055;51.930;8.840;2023-06-10T11:00:32;74014.50;;;-145.72;34.06
15914;BME280;8055;51.930;8.840;2023-06-10T11:03:06;74016.56;;;-145.72;35.10
15914;BME280;8055;51.930;8.840;2023-06-10T11:05:37;73979.34;;;-145.72;35.66
15914;BME280;8055;51.930;8.840;2023-06-10T11:08:04;73989.69;;;-145.72;34.11
15914;BME280;8055;51.930;8.840;2023-06-10T11:10:35;73966.94;;;-145.72;37.37
15914;BME280;8055;51.930;8.840;2023-06-10T11:13:06;73942.09;;;-145.72;36.36
15914;BME280;8055;51.930;8.840;2023-06-10T11:15:32;73948.31;;;-145.72;35.49
15914;BME280;8055;51.930;8.840;2023-06-10T11:18:22;73904.88;;;-145.72;36.29
15914;BME280;8055;51.930;8.840;2023-06-10T11:25:51;73900.75;;;-145.72;36.19
15914;BME280;8055;51.930;8.840;2023-06-10T11:28:19;73869.72;;;-145.72;37.43
15914;BME280;8055;51.930;8.840;2023-06-10T11:30:45;73884.19;;;-145.72;35.82
15914;BME280;8055;51.930;8.840;2023-06-10T11:33:17;73873.84;;;-145.72;36.22
15914;BME280;8055;51.930;8.840;2023-06-10T11:35:43;73867.66;;;-145.72;38.00
15914;BME280;8055;51.930;8.840;2023-06-10T11:38:09;73853.19;;;-145.72;38.03
15914;BME280;8055;51.930;8.840;2023-06-10T11:40:34;73855.25;;;-145.72;37.35
15914;BME280;8055;51.930;8.840;2023-06-10T11:43:00;73826.28;;;-145.72;38.16
15914;BME280;8055;51.930;8.840;2023-06-10T11:45:26;73842.84;;;-145.72;36.84
15914;BME280;8055;51.930;8.840;2023-06-10T11:47:58;73861.44;;;-145.72;37.97
15914;BME280;8055;51.930;8.840;2023-06-10T11:50:31;73851.09;;;-145.72;38.35
15914;BME280;8055;51.930;8.840;2023-06-10T11:52:56;73844.91;;;-145.72;37.12
15914;BME280;8055;51.930;8.840;2023-06-10T11:55:24;73838.69;;;-145.72;37.31
15914;BME280;8055;51.930;8.840;2023-06-10T11:57:50;73797.34;;;-145.72;37.77
15914;BME280;8055;51.930;8.840;2023-06-10T12:00:22;73826.28;;;-145.72;37.94
15914;BME280;8055;51.930;8.840;2023-06-10T12:02:55;73784.94;;;-145.72;37.53
15914;BME280;8055;51.930;8.840;2023-06-10T12:05:22;73770.44;;;-145.72;37.14
15914;BME280;8055;51.930;8.840;2023-06-10T12:07:47;73733.22;;;-145.72;37.73
15914;BME280;8055;51.930;8.840;2023-06-10T12:10:13;73776.66;;;-145.72;37.94
15914;BME280;8055;51.930;8.840;2023-06-10T12:12:38;73801.47;;;-145.72;38.26
15914;BME280;8055;51.930;8.840;2023-06-10T12:15:04;73778.72;;;-145.72;37.97
15914;BME280;8055;51.930;8.840;2023-06-10T12:20:00;73809.75;;;-145.72;37.95
15914;BME280;8055;51.930;8.840;2023-06-10T12:22:25;73745.63;;;-145.72;38.70
15914;BME280;8055;51.930;8.840;2023-06-10T12:24:58;73751.84;;;-145.72;38.64
15914;BME280;8055;51.930;8.840;2023-06-10T12:27:32;73753.91;;;-145.72;38.61
15914;BME280;8055;51.930;8.840;2023-06-10T12:30:00;73720.81;;;-145.72;38.04
15914;BME280;8055;51.930;8.840;2023-06-10T12:32:39;73696.00;;;-145.72;37.64
15914;BME280;8055;51.930;8.840;2023-06-10T12:35:06;73679.44;;;-145.72;39.29
15914;BME280;8055;51.930;8.840;2023-06-10T12:37:34;73640.16;;;-145.72;38.46
15914;BME280;8055;51.930;8.840;2023-06-10T12:40:04;73619.47;;;-145.72;38.08
15914;BME280;8055;51.930;8.840;2023-06-10T12:42:37;73642.22;;;-145.72;37.88
15914;BME280;8055;51.930;8.840;2023-06-10T12:45:03;73600.84;;;-145.72;37.53
15914;BME280;8055;51.930;8.840;2023-06-10T12:47:37;73594.66;;;-145.72;38.18
15914;BME280;8055;51.930;8.840;2023-06-10T12:50:07;73588.44;;;-145.72;36.72
15914;BME280;8055;51.930;8.840;2023-06-10T12:52:32;73611.19;;;-145.72;37.23
15914;BME280;8055;51.930;8.840;2023-06-10T12:54:58;73609.13;;;-145.72;37.85
15914;BME280;8055;51.930;8.840;2023-06-10T12:57:24;73590.53;;;-145.72;37.78
15914;BME280;8055;51.930;8.840;2023-06-10T12:59:52;73613.28;;;-145.72;37.55